sensor_id;sensor_type;location;lat;lon;timestamp;temperature;humidity
35746;DHT22;21870;42.812;74.628;2022-07-17T00:00:22;24.70;80.00
35746;DHT22;21870;42.812;74.628;2022-07-17T00:02:48;24.70;79.90
35746;DHT22;21870;42.812;74.628;2022-07-17T00:05:14;24.70;80.10
35746;DHT22;21870;42.812;74.628;2022-07-17T00:07:41;24.70;80.20
35746;DHT22;21870;42.812;74.628;2022-07-17T00:10:07;24.70;80.20
35746;DHT22;21870;42.812;74.628;2022-07-17T00:12:33;24.70;79.90
35746;DHT22;21870;42.812;74.628;2022-07-17T00:15:00;24.80;80.60
35746;DHT22;21870;42.812;74.628;2022-07-17T00:17:26;24.80;79.60
35746;DHT22;21870;42.812;74.628;2022-07-17T00:19:52;24.90;79.50
35746;DHT22;21870;42.812;74.628;2022-07-17T00:22:18;25.00;79.60
35746;DHT22;21870;42.812;74.628;2022-07-17T00:24:46;25.10;79.30
35746;DHT22;21870;42.812;74.628;2022-07-17T00:27:12;25.10;79.10
35746;DHT22;21870;42.812;74.628;2022-07-17T00:29:38;25.20;79.00
35746;DHT22;21870;42.812;74.628;2022-07-17T00:32:04;25.30;79.00
35746;DHT22;21870;42.812;74.628;2022-07-17T00:34:31;25.40;79.10
35746;DHT22;21870;42.812;74.628;2022-07-17T00:36:57;25.50;78.70
35746;DHT22;21870;42.812;74.628;2022-07-17T00:39:23;25.50;78.60
35746;DHT22;21870;42.812;74.628;2022-07-17T00:41:49;25.60;78.60
35746;DHT22;21870;42.812;74.628;2022-07-17T00:44:16;25.70;78.00
35746;DHT22;21870;42.812;74.628;2022-07-17T00:46:42;25.80;78.20
35746;DHT22;21870;42.812;74.628;2022-07-17T00:49:08;25.80;78.20
35746;DHT22;21870;42.812;74.628;2022-07-17T00:51:35;25.90;78.00
35746;DHT22;21870;42.812;74.628;2022-07-17T00:54:02;26.00;78.10
35746;DHT22;21870;42.812;74.628;2022-07-17T00:56:28;26.00;77.90
35746;DHT22;21870;42.812;74.628;2022-07-17T00:58:55;26.10;77.80
35746;DHT22;21870;42.812;74.628;2022-07-17T01:01:21;26.20;77.80
35746;DHT22;21870;42.812;74.628;2022-07-17T01:03:47;26.30;77.50
35746;DHT22;21870;42.812;74.628;2022-07-17T01:06:14;26.40;77.20
35746;DHT22;21870;42.812;74.628;2022-07-17T01:08:40;26.50;77.40
35746;DHT22;21870;42.812;74.628;2022-07-17T01:11:08;26.60;77.30
35746;DHT22;21870;42.812;74.628;2022-07-17T01:13:35;26.60;77.10
35746;DHT22;21870;42.812;74.628;2022-07-17T01:16:01;26.70;77.30
35746;DHT22;21870;42.812;74.628;2022-07-17T01:18:27;26.80;77.30
35746;DHT22;21870;42.812;74.628;2022-07-17T01:20:53;27.00;77.10
35746;DHT22;21870;42.812;74.628;2022-07-17T01:23:19;27.20;77.00
35746;DHT22;21870;42.812;74.628;2022-07-17T01:25:46;27.30;78.20
35746;DHT22;21870;42.812;74.628;2022-07-17T01:28:12;27.40;80.40
35746;DHT22;21870;42.812;74.628;2022-07-17T01:30:51;27.40;80.60
35746;DHT22;21870;42.812;74.628;2022-07-17T01:33:18;27.50;81.00
35746;DHT22;21870;42.812;74.628;2022-07-17T01:35:44;27.60;78.30
35746;DHT22;21870;42.812;74.628;2022-07-17T01:38:10;27.70;76.00
35746;DHT22;21870;42.812;74.628;2022-07-17T01:40:37;27.80;76.50
35746;DHT22;21870;42.812;74.628;2022-07-17T01:43:03;27.90;76.50
35746;DHT22;21870;42.812;74.628;2022-07-17T01:45:29;28.10;76.50
35746;DHT22;21870;42.812;74.628;2022-07-17T01:47:55;28.10;75.70
35746;DHT22;21870;42.812;74.628;2022-07-17T01:50:21;28.20;76.20
35746;DHT22;21870;42.812;74.628;2022-07-17T01:52:47;28.30;75.60
35746;DHT22;21870;42.812;74.628;2022-07-17T01:55:15;28.40;76.30
35746;DHT22;21870;42.812;74.628;2022-07-17T01:57:42;28.40;75.70
35746;DHT22;21870;42.812;74.628;2022-07-17T02:00:11;28.60;75.60
35746;DHT22;21870;42.812;74.628;2022-07-17T02:02:38;28.60;76.70
35746;DHT22;21870;42.812;74.628;2022-07-17T02:05:04;28.70;75.80
35746;DHT22;21870;42.812;74.628;2022-07-17T02:07:30;28.90;76.10
35746;DHT22;21870;42.812;74.628;2022-07-17T02:09:57;28.90;74.70
35746;DHT22;21870;42.812;74.628;2022-07-17T02:12:23;29.00;75.30
35746;DHT22;21870;42.812;74.628;2022-07-17T02:14:49;29.10;76.10
35746;DHT22;21870;42.812;74.628;2022-07-17T02:17:15;29.10;74.60
35746;DHT22;21870;42.812;74.628;2022-07-17T02:19:41;29.30;74.80
35746;DHT22;21870;42.812;74.628;2022-07-17T02:22:08;29.40;76.80
35746;DHT22;21870;42.812;74.628;2022-07-17T02:24:34;29.50;75.50
35746;DHT22;21870;42.812;74.628;2022-07-17T02:27:00;29.70;76.40
35746;DHT22;21870;42.812;74.628;2022-07-17T02:29:26;29.90;76.70
35746;DHT22;21870;42.812;74.628;2022-07-17T02:31:52;30.00;78.70
35746;DHT22;21870;42.812;74.628;2022-07-17T02:34:18;30.20;78.90
35746;DHT22;21870;42.812;74.628;2022-07-17T02:36:44;30.20;77.90
35746;DHT22;21870;42.812;74.628;2022-07-17T02:39:10;30.30;78.00
35746;DHT22;21870;42.812;74.628;2022-07-17T02:41:36;30.40;77.40
35746;DHT22;21870;42.812;74.628;2022-07-17T02:44:02;30.50;76.40
35746;DHT22;21870;42.812;74.628;2022-07-17T02:46:28;30.60;74.00
35746;DHT22;21870;42.812;74.628;2022-07-17T02:48:54;30.70;78.40
35746;DHT22;21870;42.812;74.628;2022-07-17T02:51:20;30.80;79.60
35746;DHT22;21870;42.812;74.628;2022-07-17T02:53:46;31.00;77.10
35746;DHT22;21870;42.812;74.628;2022-07-17T02:56:12;31.10;76.60
35746;DHT22;21870;42.812;74.628;2022-07-17T02:58:38;31.10;78.40
35746;DHT22;21870;42.812;74.628;2022-07-17T03:01:05;31.30;79.50
35746;DHT22;21870;42.812;74.628;2022-07-17T03:03:31;31.30;76.80
35746;DHT22;21870;42.812;74.628;2022-07-17T03:05:57;31.40;76.30
35746;DHT22;21870;42.812;74.628;2022-07-17T03:08:23;31.50;73.10
35746;DHT22;21870;42.812;74.628;2022-07-17T03:10:49;31.60;76.30
35746;DHT22;21870;42.812;74.628;2022-07-17T03:13:15;31.70;79.90
35746;DHT22;21870;42.812;74.628;2022-07-17T03:15:41;31.80;76.30
35746;DHT22;21870;42.812;74.628;2022-07-17T03:18:07;31.90;74.70
35746;DHT22;21870;42.812;74.628;2022-07-17T03:20:33;32.10;75.40
35746;DHT22;21870;42.812;74.628;2022-07-17T03:22:59;32.10;79.90
35746;DHT22;21870;42.812;74.628;2022-07-17T03:25:25;32.20;80.70
35746;DHT22;21870;42.812;74.628;2022-07-17T03:27:51;32.30;79.00
35746;DHT22;21870;42.812;74.628;2022-07-17T03:30:17;32.50;80.10
35746;DHT22;21870;42.812;74.628;2022-07-17T03:32:43;32.50;79.20
35746;DHT22;21870;42.812;74.628;2022-07-17T03:35:09;32.60;77.90
35746;DHT22;21870;42.812;74.628;2022-07-17T03:37:35;32.60;80.10
35746;DHT22;21870;42.812;74.628;2022-07-17T03:40:04;32.70;78.30
35746;DHT22;21870;42.812;74.628;2022-07-17T03:42:31;32.80;77.80
35746;DHT22;21870;42.812;74.628;2022-07-17T03:44:57;32.80;77.90
35746;DHT22;21870;42.812;74.628;2022-07-17T03:47:23;33.00;80.40
35746;DHT22;21870;42.812;74.628;2022-07-17T03:49:49;32.90;78.90
35746;DHT22;21870;42.812;74.628;2022-07-17T03:52:16;33.00;78.90
35746;DHT22;21870;42.812;74.628;2022-07-17T03:54:42;33.20;75.40
35746;DHT22;21870;42.812;74.628;2022-07-17T03:57:08;33.40;77.30
35746;DHT22;21870;42.812;74.628;2022-07-17T03:59:34;33.60;74.60
35746;DHT22;21870;42.812;74.628;2022-07-17T04:02:00;33.50;75.00
35746;DHT22;21870;42.812;74.628;2022-07-17T04:04:26;33.40;71.80
35746;DHT22;21870;42.812;74.628;2022-07-17T04:06:52;33.40;73.60
35746;DHT22;21870;42.812;74.628;2022-07-17T04:09:18;33.40;71.90
35746;DHT22;21870;42.812;74.628;2022-07-17T04:11:44;33.60;71.30
35746;DHT22;21870;42.812;74.628;2022-07-17T04:14:10;33.70;74.30
35746;DHT22;21870;42.812;74.628;2022-07-17T04:16:39;33.80;76.40
35746;DHT22;21870;42.812;74.628;2022-07-17T04:19:05;33.90;76.50
35746;DHT22;21870;42.812;74.628;2022-07-17T04:21:31;34.00;73.10
35746;DHT22;21870;42.812;74.628;2022-07-17T04:23:57;34.20;71.60
35746;DHT22;21870;42.812;74.628;2022-07-17T04:26:23;34.20;72.40
35746;DHT22;21870;42.812;74.628;2022-07-17T04:28:49;34.30;72.80
35746;DHT22;21870;42.812;74.628;2022-07-17T04:31:16;34.40;74.00
35746;DHT22;21870;42.812;74.628;2022-07-17T04:33:42;34.60;74.30
35746;DHT22;21870;42.812;74.628;2022-07-17T04:36:08;34.50;75.50
35746;DHT22;21870;42.812;74.628;2022-07-17T04:38:34;34.70;72.50
35746;DHT22;21870;42.812;74.628;2022-07-17T04:41:00;34.80;72.60
35746;DHT22;21870;42.812;74.628;2022-07-17T04:43:26;34.80;70.30
35746;DHT22;21870;42.812;74.628;2022-07-17T04:45:52;34.90;74.70
35746;DHT22;21870;42.812;74.628;2022-07-17T04:48:18;34.90;72.10
35746;DHT22;21870;42.812;74.628;2022-07-17T04:50:45;34.80;71.60
35746;DHT22;21870;42.812;74.628;2022-07-17T04:53:11;35.00;72.90
35746;DHT22;21870;42.812;74.628;2022-07-17T04:55:37;35.10;71.90
35746;DHT22;21870;42.812;74.628;2022-07-17T04:58:03;35.30;71.60
35746;DHT22;21870;42.812;74.628;2022-07-17T05:00:29;35.30;71.60
35746;DHT22;21870;42.812;74.628;2022-07-17T05:02:55;35.30;66.60
35746;DHT22;21870;42.812;74.628;2022-07-17T05:05:22;35.40;73.40
35746;DHT22;21870;42.812;74.628;2022-07-17T05:07:48;35.50;68.00
35746;DHT22;21870;42.812;74.628;2022-07-17T05:10:14;35.70;73.40
35746;DHT22;21870;42.812;74.628;2022-07-17T05:12:40;35.70;71.40
35746;DHT22;21870;42.812;74.628;2022-07-17T05:15:07;35.70;73.80
35746;DHT22;21870;42.812;74.628;2022-07-17T05:17:33;35.80;70.30
35746;DHT22;21870;42.812;74.628;2022-07-17T05:19:59;35.80;71.30
35746;DHT22;21870;42.812;74.628;2022-07-17T05:22:25;35.90;67.40
35746;DHT22;21870;42.812;74.628;2022-07-17T05:24:51;36.00;65.40
35746;DHT22;21870;42.812;74.628;2022-07-17T05:27:17;36.00;69.00
35746;DHT22;21870;42.812;74.628;2022-07-17T05:29:43;36.20;71.00
35746;DHT22;21870;42.812;74.628;2022-07-17T05:32:09;36.30;67.90
35746;DHT22;21870;42.812;74.628;2022-07-17T05:34:35;36.20;72.80
35746;DHT22;21870;42.812;74.628;2022-07-17T05:37:01;36.10;70.60
35746;DHT22;21870;42.812;74.628;2022-07-17T05:39:27;36.10;69.50
35746;DHT22;21870;42.812;74.628;2022-07-17T05:41:53;36.20;67.60
35746;DHT22;21870;42.812;74.628;2022-07-17T05:44:19;36.30;66.40
35746;DHT22;21870;42.812;74.628;2022-07-17T05:46:45;36.40;65.60
35746;DHT22;21870;42.812;74.628;2022-07-17T05:49:11;36.40;71.40
35746;DHT22;21870;42.812;74.628;2022-07-17T05:51:37;36.40;68.40
35746;DHT22;21870;42.812;74.628;2022-07-17T05:54:03;36.40;66.30
35746;DHT22;21870;42.812;74.628;2022-07-17T05:56:29;36.40;65.30
35746;DHT22;21870;42.812;74.628;2022-07-17T05:58:56;36.20;64.00
35746;DHT22;21870;42.812;74.628;2022-07-17T06:01:22;36.20;65.00
35746;DHT22;21870;42.812;74.628;2022-07-17T06:03:48;36.40;67.60
35746;DHT22;21870;42.812;74.628;2022-07-17T06:06:14;36.50;73.00
35746;DHT22;21870;42.812;74.628;2022-07-17T06:08:40;36.60;68.50
35746;DHT22;21870;42.812;74.628;2022-07-17T06:11:06;36.40;68.10
35746;DHT22;21870;42.812;74.628;2022-07-17T06:13:32;36.50;65.30
35746;DHT22;21870;42.812;74.628;2022-07-17T06:15:58;36.60;70.70
35746;DHT22;21870;42.812;74.628;2022-07-17T06:18:26;36.70;66.90
35746;DHT22;21870;42.812;74.628;2022-07-17T06:20:52;36.70;67.10
35746;DHT22;21870;42.812;74.628;2022-07-17T06:23:18;36.70;69.70
35746;DHT22;21870;42.812;74.628;2022-07-17T06:25:44;36.90;70.20
35746;DHT22;21870;42.812;74.628;2022-07-17T06:28:10;36.90;66.80
35746;DHT22;21870;42.812;74.628;2022-07-17T06:30:36;36.90;68.20
35746;DHT22;21870;42.812;74.628;2022-07-17T06:33:03;36.70;69.30
35746;DHT22;21870;42.812;74.628;2022-07-17T06:35:31;37.00;65.30
35746;DHT22;21870;42.812;74.628;2022-07-17T06:38:03;37.20;61.90
35746;DHT22;21870;42.812;74.628;2022-07-17T06:40:29;37.20;60.90
35746;DHT22;21870;42.812;74.628;2022-07-17T06:42:55;37.40;63.00
35746;DHT22;21870;42.812;74.628;2022-07-17T06:45:21;37.40;70.20
35746;DHT22;21870;42.812;74.628;2022-07-17T06:47:47;37.40;63.10
35746;DHT22;21870;42.812;74.628;2022-07-17T06:50:14;37.40;66.70
35746;DHT22;21870;42.812;74.628;2022-07-17T06:52:40;37.30;64.50
35746;DHT22;21870;42.812;74.628;2022-07-17T06:55:06;37.50;67.30
35746;DHT22;21870;42.812;74.628;2022-07-17T06:57:32;37.50;69.60
35746;DHT22;21870;42.812;74.628;2022-07-17T06:59:58;37.60;67.60
35746;DHT22;21870;42.812;74.628;2022-07-17T07:02:24;37.70;64.20
35746;DHT22;21870;42.812;74.628;2022-07-17T07:04:50;37.80;62.90
35746;DHT22;21870;42.812;74.628;2022-07-17T07:07:16;37.90;65.70
35746;DHT22;21870;42.812;74.628;2022-07-17T07:09:42;38.00;66.00
35746;DHT22;21870;42.812;74.628;2022-07-17T07:12:08;37.90;65.80
35746;DHT22;21870;42.812;74.628;2022-07-17T07:14:34;37.90;63.10
35746;DHT22;21870;42.812;74.628;2022-07-17T07:17:03;37.80;63.40
35746;DHT22;21870;42.812;74.628;2022-07-17T07:19:31;37.70;62.40
35746;DHT22;21870;42.812;74.628;2022-07-17T07:21:57;37.50;64.00
35746;DHT22;21870;42.812;74.628;2022-07-17T07:24:23;37.40;66.40
35746;DHT22;21870;42.812;74.628;2022-07-17T07:26:49;37.60;61.70
35746;DHT22;21870;42.812;74.628;2022-07-17T07:29:15;37.70;64.50
35746;DHT22;21870;42.812;74.628;2022-07-17T07:31:41;37.80;61.30
35746;DHT22;21870;42.812;74.628;2022-07-17T07:34:07;37.80;66.90
35746;DHT22;21870;42.812;74.628;2022-07-17T07:36:33;37.70;69.70
35746;DHT22;21870;42.812;74.628;2022-07-17T07:38:59;37.60;63.40
35746;DHT22;21870;42.812;74.628;2022-07-17T07:41:25;37.60;60.80
35746;DHT22;21870;42.812;74.628;2022-07-17T07:43:52;37.50;61.70
35746;DHT22;21870;42.812;74.628;2022-07-17T07:46:18;37.50;60.50
35746;DHT22;21870;42.812;74.628;2022-07-17T07:48:44;37.30;64.10
35746;DHT22;21870;42.812;74.628;2022-07-17T07:51:10;37.30;62.10
35746;DHT22;21870;42.812;74.628;2022-07-17T07:53:37;37.40;63.30
35746;DHT22;21870;42.812;74.628;2022-07-17T07:56:03;37.40;62.80
35746;DHT22;21870;42.812;74.628;2022-07-17T07:58:29;37.50;63.00
35746;DHT22;21870;42.812;74.628;2022-07-17T08:00:55;37.50;62.30
35746;DHT22;21870;42.812;74.628;2022-07-17T08:03:24;37.50;64.10
35746;DHT22;21870;42.812;74.628;2022-07-17T08:05:50;37.60;65.80
35746;DHT22;21870;42.812;74.628;2022-07-17T08:08:16;37.70;60.40
35746;DHT22;21870;42.812;74.628;2022-07-17T08:10:42;37.80;61.50
35746;DHT22;21870;42.812;74.628;2022-07-17T08:13:08;37.60;62.70
35746;DHT22;21870;42.812;74.628;2022-07-17T08:15:35;37.40;60.70
35746;DHT22;21870;42.812;74.628;2022-07-17T08:18:05;37.40;61.70
35746;DHT22;21870;42.812;74.628;2022-07-17T08:20:32;37.20;63.10
35746;DHT22;21870;42.812;74.628;2022-07-17T08:22:58;37.10;63.10
35746;DHT22;21870;42.812;74.628;2022-07-17T08:25:24;37.30;67.10
35746;DHT22;21870;42.812;74.628;2022-07-17T08:27:50;37.50;66.10
35746;DHT22;21870;42.812;74.628;2022-07-17T08:30:16;37.70;66.70
35746;DHT22;21870;42.812;74.628;2022-07-17T08:32:43;37.90;65.30
35746;DHT22;21870;42.812;74.628;2022-07-17T08:35:10;37.90;61.20
35746;DHT22;21870;42.812;74.628;2022-07-17T08:37:50;38.10;64.80
35746;DHT22;21870;42.812;74.628;2022-07-17T08:40:24;38.10;65.50
35746;DHT22;21870;42.812;74.628;2022-07-17T08:42:55;38.10;62.80
35746;DHT22;21870;42.812;74.628;2022-07-17T08:45:22;38.20;59.10
35746;DHT22;21870;42.812;74.628;2022-07-17T08:47:50;38.30;60.20
35746;DHT22;21870;42.812;74.628;2022-07-17T08:50:23;38.00;61.70
35746;DHT22;21870;42.812;74.628;2022-07-17T08:52:49;37.80;59.30
35746;DHT22;21870;42.812;74.628;2022-07-17T08:55:16;37.90;60.30
35746;DHT22;21870;42.812;74.628;2022-07-17T08:57:44;37.70;60.70
35746;DHT22;21870;42.812;74.628;2022-07-17T09:00:12;37.50;63.00
35746;DHT22;21870;42.812;74.628;2022-07-17T09:02:39;37.60;59.50
35746;DHT22;21870;42.812;74.628;2022-07-17T09:05:07;37.80;59.50
35746;DHT22;21870;42.812;74.628;2022-07-17T09:07:33;37.90;58.50
35746;DHT22;21870;42.812;74.628;2022-07-17T09:10:00;38.10;59.80
35746;DHT22;21870;42.812;74.628;2022-07-17T09:12:27;38.20;59.40
35746;DHT22;21870;42.812;74.628;2022-07-17T09:14:54;38.20;65.30
35746;DHT22;21870;42.812;74.628;2022-07-17T09:17:20;38.20;62.30
35746;DHT22;21870;42.812;74.628;2022-07-17T09:19:48;38.10;61.40
35746;DHT22;21870;42.812;74.628;2022-07-17T09:22:23;38.30;58.90
35746;DHT22;21870;42.812;74.628;2022-07-17T09:24:52;38.30;59.70
35746;DHT22;21870;42.812;74.628;2022-07-17T09:30:08;37.90;60.40
35746;DHT22;21870;42.812;74.628;2022-07-17T09:32:41;37.90;61.20
35746;DHT22;21870;42.812;74.628;2022-07-17T09:35:11;37.90;62.90
35746;DHT22;21870;42.812;74.628;2022-07-17T09:37:38;38.00;65.90
35746;DHT22;21870;42.812;74.628;2022-07-17T09:40:13;38.00;59.80
35746;DHT22;21870;42.812;74.628;2022-07-17T09:42:58;37.80;61.00
35746;DHT22;21870;42.812;74.628;2022-07-17T09:45:24;37.60;60.60
35746;DHT22;21870;42.812;74.628;2022-07-17T09:47:53;37.50;61.80
35746;DHT22;21870;42.812;74.628;2022-07-17T09:50:21;37.60;59.00
35746;DHT22;21870;42.812;74.628;2022-07-17T09:52:49;37.50;61.70
35746;DHT22;21870;42.812;74.628;2022-07-17T09:55:20;37.40;62.10
35746;DHT22;21870;42.812;74.628;2022-07-17T09:57:49;37.30;61.80
35746;DHT22;21870;42.812;74.628;2022-07-17T10:00:17;37.50;62.30
35746;DHT22;21870;42.812;74.628;2022-07-17T10:02:45;37.40;61.00
35746;DHT22;21870;42.812;74.628;2022-07-17T10:05:12;37.40;62.30
35746;DHT22;21870;42.812;74.628;2022-07-17T10:07:41;37.30;61.20
35746;DHT22;21870;42.812;74.628;2022-07-17T10:10:08;37.20;61.80
35746;DHT22;21870;42.812;74.628;2022-07-17T10:12:39;37.30;61.30
35746;DHT22;21870;42.812;74.628;2022-07-17T10:15:07;37.20;60.00
35746;DHT22;21870;42.812;74.628;2022-07-17T10:17:33;37.10;59.30
35746;DHT22;21870;42.812;74.628;2022-07-17T10:20:00;37.20;60.10
35746;DHT22;21870;42.812;74.628;2022-07-17T10:22:26;37.40;60.80
35746;DHT22;21870;42.812;74.628;2022-07-17T10:24:57;37.30;61.00
35746;DHT22;21870;42.812;74.628;2022-07-17T10:27:25;37.40;60.10
35746;DHT22;21870;42.812;74.628;2022-07-17T10:30:06;37.20;60.90
35746;DHT22;21870;42.812;74.628;2022-07-17T10:32:33;37.20;60.30
35746;DHT22;21870;42.812;74.628;2022-07-17T10:35:03;37.30;60.40
35746;DHT22;21870;42.812;74.628;2022-07-17T10:40:22;37.30;60.60
35746;DHT22;21870;42.812;74.628;2022-07-17T10:43:01;37.20;61.40
35746;DHT22;21870;42.812;74.628;2022-07-17T10:48:16;37.20;59.90
35746;DHT22;21870;42.812;74.628;2022-07-17T10:53:31;37.40;59.40
35746;DHT22;21870;42.812;74.628;2022-07-17T10:56:03;37.30;61.60
35746;DHT22;21870;42.812;74.628;2022-07-17T10:58:41;37.30;60.20
35746;DHT22;21870;42.812;74.628;2022-07-17T11:01:13;37.40;60.00
35746;DHT22;21870;42.812;74.628;2022-07-17T11:03:50;37.40;59.00
35746;DHT22;21870;42.812;74.628;2022-07-17T11:08:54;37.40;59.60
35746;DHT22;21870;42.812;74.628;2022-07-17T11:11:23;37.40;59.10
35746;DHT22;21870;42.812;74.628;2022-07-17T11:13:50;37.30;59.10
35746;DHT22;21870;42.812;74.628;2022-07-17T11:16:29;37.30;60.20
35746;DHT22;21870;42.812;74.628;2022-07-17T11:18:55;37.20;59.60
35746;DHT22;21870;42.812;74.628;2022-07-17T11:21:21;37.30;59.60
35746;DHT22;21870;42.812;74.628;2022-07-17T11:23:53;37.20;58.40
35746;DHT22;21870;42.812;74.628;2022-07-17T11:26:20;37.20;58.20
35746;DHT22;21870;42.812;74.628;2022-07-17T11:28:47;37.10;58.80
35746;DHT22;21870;42.812;74.628;2022-07-17T11:31:23;37.10;58.20
35746;DHT22;21870;42.812;74.628;2022-07-17T11:34:00;37.10;58.60
35746;DHT22;21870;42.812;74.628;2022-07-17T11:36:34;37.00;59.00
35746;DHT22;21870;42.812;74.628;2022-07-17T11:39:04;37.00;58.90
35746;DHT22;21870;42.812;74.628;2022-07-17T11:41:32;36.90;58.20
35746;DHT22;21870;42.812;74.628;2022-07-17T11:43:58;36.90;58.30
35746;DHT22;21870;42.812;74.628;2022-07-17T11:46:26;36.80;58.00
35746;DHT22;21870;42.812;74.628;2022-07-17T11:48:53;36.70;58.00
35746;DHT22;21870;42.812;74.628;2022-07-17T11:51:19;36.60;57.90
35746;DHT22;21870;42.812;74.628;2022-07-17T11:53:45;36.60;57.90
35746;DHT22;21870;42.812;74.628;2022-07-17T11:56:22;36.40;58.60
35746;DHT22;21870;42.812;74.628;2022-07-17T11:58:48;36.40;59.10
35746;DHT22;21870;42.812;74.628;2022-07-17T12:01:15;36.40;57.80
35746;DHT22;21870;42.812;74.628;2022-07-17T12:03:41;36.30;57.80
35746;DHT22;21870;42.812;74.628;2022-07-17T12:06:07;36.20;57.90
35746;DHT22;21870;42.812;74.628;2022-07-17T12:08:33;36.10;58.20
35746;DHT22;21870;42.812;74.628;2022-07-17T12:13:44;35.90;57.90
35746;DHT22;21870;42.812;74.628;2022-07-17T12:16:27;35.80;58.80
35746;DHT22;21870;42.812;74.628;2022-07-17T12:21:22;35.80;59.10
35746;DHT22;21870;42.812;74.628;2022-07-17T12:24:03;35.60;58.90
35746;DHT22;21870;42.812;74.628;2022-07-17T12:26:30;35.60;58.90
35746;DHT22;21870;42.812;74.628;2022-07-17T12:28:56;35.50;58.80
35746;DHT22;21870;42.812;74.628;2022-07-17T12:31:23;35.50;58.60
35746;DHT22;21870;42.812;74.628;2022-07-17T12:33:53;35.50;58.40
35746;DHT22;21870;42.812;74.628;2022-07-17T12:36:23;35.40;58.30
35746;DHT22;21870;42.812;74.628;2022-07-17T12:38:50;35.30;58.80
35746;DHT22;21870;42.812;74.628;2022-07-17T12:41:16;35.30;58.60
35746;DHT22;21870;42.812;74.628;2022-07-17T12:43:45;35.20;58.70
35746;DHT22;21870;42.812;74.628;2022-07-17T12:46:12;35.30;58.60
35746;DHT22;21870;42.812;74.628;2022-07-17T12:48:39;35.20;59.20
35746;DHT22;21870;42.812;74.628;2022-07-17T12:51:07;35.10;59.20
35746;DHT22;21870;42.812;74.628;2022-07-17T12:53:34;35.10;59.00
35746;DHT22;21870;42.812;74.628;2022-07-17T12:56:02;35.10;58.40
35746;DHT22;21870;42.812;74.628;2022-07-17T12:58:29;35.10;59.20
35746;DHT22;21870;42.812;74.628;2022-07-17T13:00:55;35.00;58.70
35746;DHT22;21870;42.812;74.628;2022-07-17T13:03:21;35.00;58.50
35746;DHT22;21870;42.812;74.628;2022-07-17T13:05:47;35.00;59.10
35746;DHT22;21870;42.812;74.628;2022-07-17T13:08:13;34.90;59.00
35746;DHT22;21870;42.812;74.628;2022-07-17T13:10:40;34.90;58.50
35746;DHT22;21870;42.812;74.628;2022-07-17T13:13:06;34.90;58.50
35746;DHT22;21870;42.812;74.628;2022-07-17T13:15:32;34.80;58.60
35746;DHT22;21870;42.812;74.628;2022-07-17T13:17:58;34.70;58.90
35746;DHT22;21870;42.812;74.628;2022-07-17T13:20:26;34.70;59.00
35746;DHT22;21870;42.812;74.628;2022-07-17T13:22:52;34.70;58.60
35746;DHT22;21870;42.812;74.628;2022-07-17T13:25:18;34.70;59.00
35746;DHT22;21870;42.812;74.628;2022-07-17T13:27:47;34.70;58.90
35746;DHT22;21870;42.812;74.628;2022-07-17T13:30:14;34.60;59.10
35746;DHT22;21870;42.812;74.628;2022-07-17T13:32:40;34.50;59.00
35746;DHT22;21870;42.812;74.628;2022-07-17T13:35:06;34.50;58.80
35746;DHT22;21870;42.812;74.628;2022-07-17T13:37:35;34.50;58.90
35746;DHT22;21870;42.812;74.628;2022-07-17T13:40:04;34.40;59.10
35746;DHT22;21870;42.812;74.628;2022-07-17T13:42:30;34.40;59.10
35746;DHT22;21870;42.812;74.628;2022-07-17T13:44:57;34.30;59.10
35746;DHT22;21870;42.812;74.628;2022-07-17T13:47:23;34.20;59.40
35746;DHT22;21870;42.812;74.628;2022-07-17T13:49:49;34.20;59.50
35746;DHT22;21870;42.812;74.628;2022-07-17T13:52:15;34.20;59.40
35746;DHT22;21870;42.812;74.628;2022-07-17T13:54:41;34.20;59.40
35746;DHT22;21870;42.812;74.628;2022-07-17T13:57:07;34.10;59.70
35746;DHT22;21870;42.812;74.628;2022-07-17T13:59:33;34.00;59.70
35746;DHT22;21870;42.812;74.628;2022-07-17T14:02:00;33.90;59.80
35746;DHT22;21870;42.812;74.628;2022-07-17T14:04:26;33.90;59.80
35746;DHT22;21870;42.812;74.628;2022-07-17T14:06:52;33.80;59.80
35746;DHT22;21870;42.812;74.628;2022-07-17T14:09:18;33.80;60.30
35746;DHT22;21870;42.812;74.628;2022-07-17T14:11:44;33.70;60.30
35746;DHT22;21870;42.812;74.628;2022-07-17T14:14:10;33.50;60.10
35746;DHT22;21870;42.812;74.628;2022-07-17T14:16:36;33.50;60.30
35746;DHT22;21870;42.812;74.628;2022-07-17T14:19:02;33.40;60.20
35746;DHT22;21870;42.812;74.628;2022-07-17T14:21:34;33.30;60.30
35746;DHT22;21870;42.812;74.628;2022-07-17T14:24:01;33.20;60.20
35746;DHT22;21870;42.812;74.628;2022-07-17T14:26:27;33.20;60.40
35746;DHT22;21870;42.812;74.628;2022-07-17T14:28:53;33.10;60.40
35746;DHT22;21870;42.812;74.628;2022-07-17T14:31:20;33.00;60.50
35746;DHT22;21870;42.812;74.628;2022-07-17T14:33:46;32.90;60.50
35746;DHT22;21870;42.812;74.628;2022-07-17T14:36:14;32.80;61.40
35746;DHT22;21870;42.812;74.628;2022-07-17T14:38:41;32.60;61.50
35746;DHT22;21870;42.812;74.628;2022-07-17T14:41:07;32.50;62.90
35746;DHT22;21870;42.812;74.628;2022-07-17T14:43:33;32.20;64.70
35746;DHT22;21870;42.812;74.628;2022-07-17T14:45:59;32.10;65.90
35746;DHT22;21870;42.812;74.628;2022-07-17T14:48:25;31.90;66.60
35746;DHT22;21870;42.812;74.628;2022-07-17T14:50:52;31.70;67.40
35746;DHT22;21870;42.812;74.628;2022-07-17T14:53:18;31.50;67.60
35746;DHT22;21870;42.812;74.628;2022-07-17T14:55:44;31.40;67.90
35746;DHT22;21870;42.812;74.628;2022-07-17T14:58:10;31.20;68.00
35746;DHT22;21870;42.812;74.628;2022-07-17T15:00:36;31.10;68.20
35746;DHT22;21870;42.812;74.628;2022-07-17T15:03:02;31.00;68.20
35746;DHT22;21870;42.812;74.628;2022-07-17T15:05:28;30.80;68.30
35746;DHT22;21870;42.812;74.628;2022-07-17T15:07:54;30.70;68.50
35746;DHT22;21870;42.812;74.628;2022-07-17T15:10:20;30.70;68.70
35746;DHT22;21870;42.812;74.628;2022-07-17T15:12:46;30.60;69.10
35746;DHT22;21870;42.812;74.628;2022-07-17T15:15:12;30.50;69.20
35746;DHT22;21870;42.812;74.628;2022-07-17T15:17:38;30.50;69.40
35746;DHT22;21870;42.812;74.628;2022-07-17T15:20:05;30.40;69.10
35746;DHT22;21870;42.812;74.628;2022-07-17T15:22:31;30.40;69.30
35746;DHT22;21870;42.812;74.628;2022-07-17T15:24:57;30.30;69.30
35746;DHT22;21870;42.812;74.628;2022-07-17T15:27:23;30.20;69.40
35746;DHT22;21870;42.812;74.628;2022-07-17T15:29:49;30.20;69.00
35746;DHT22;21870;42.812;74.628;2022-07-17T15:32:15;30.10;68.70